Time;durP1;ratioP1;P1;durP2;ratioP2;P2;SDS_P1;SDS_P2;PMS_P1;PMS_P2;Temp;Humidity;BMP_temperature;BMP_pressure;BME280_temperature;BME280_humidity;BME280_pressure;Samples;Min_cycle;Max_cycle;Signal;HPM_P1;HPM_P2
2022/03/15 00:01:25;;;;;;;;;5.00;5.00;;;;;9.23;72.86;102711.31;5069535;28;10507;-70
2022/03/15 00:03:51;;;;;;;;;7.00;7.00;;;;;9.22;72.85;102706.91;5069981;28;10904;-69
2022/03/15 00:06:18;;;;;;;;;2.00;2.00;;;;;9.17;73.01;102709.16;5070040;28;10734;-69
2022/03/15 00:08:45;;;;;;;;;5.50;4.25;;;;;9.15;72.98;102713.81;5070037;28;10493;-68
2022/03/15 00:11:12;;;;;;;;;5.00;5.00;;;;;9.17;73.00;102710.97;5068388;28;10746;-69
2022/03/15 00:13:38;;;;;;;;;6.00;6.00;;;;;9.14;73.08;102709.41;5051952;28;10650;-69
2022/03/15 00:16:06;;;;;;;;;3.75;3.75;;;;;9.15;73.11;102703.00;5052288;28;10570;-69
2022/03/15 00:18:33;;;;;;;;;5.00;4.75;;;;;9.12;72.81;102705.13;5069945;28;10671;-68
2022/03/15 00:21:02;;;;;;;;;4.75;4.75;;;;;9.16;72.84;102710.13;5069636;28;10658;-69
2022/03/15 00:23:30;;;;;;;;;4.00;4.00;;;;;9.14;72.84;102708.53;5070190;28;10496;-69
2022/03/15 00:25:59;;;;;;;;;6.00;5.50;;;;;9.16;73.17;102701.16;5067003;28;10705;-69
2022/03/15 00:28:26;;;;;;;;;5.00;2.50;;;;;9.16;73.05;102702.00;5069937;28;10658;-69
2022/03/15 00:30:53;;;;;;;;;5.00;4.00;;;;;9.14;73.08;102703.13;5069625;28;10478;-69
2022/03/15 00:33:20;;;;;;;;;5.00;3.50;;;;;9.08;73.21;102698.28;5069825;28;10570;-68
2022/03/15 00:35:47;;;;;;;;;7.00;6.00;;;;;9.09;73.12;102692.75;5069810;28;10756;-68
2022/03/15 00:38:14;;;;;;;;;10.00;7.75;;;;;9.08;72.97;102696.44;5066382;28;10702;-69
2022/03/15 00:40:40;;;;;;;;;7.00;5.50;;;;;9.07;72.97;102683.91;5049744;28;10618;-70
2022/03/15 00:43:07;;;;;;;;;3.50;2.00;;;;;9.05;72.79;102679.63;5069356;28;10732;-72
2022/03/15 00:45:34;;;;;;;;;7.50;3.50;;;;;9.03;72.81;102690.59;5069692;28;10591;-72
2022/03/15 00:48:00;;;;;;;;;5.00;4.50;;;;;9.00;72.56;102673.78;5069748;28;10542;-69
2022/03/15 00:50:29;;;;;;;;;4.00;4.00;;;;;9.01;72.71;102681.75;5069399;28;10586;-70
2022/03/15 00:52:56;;;;;;;;;3.00;3.00;;;;;8.95;72.57;102685.00;5068751;28;10709;-69
2022/03/15 00:55:23;;;;;;;;;5.25;5.25;;;;;8.92;72.79;102683.41;5069686;28;10867;-69
2022/03/15 00:57:49;;;;;;;;;5.00;5.00;;;;;8.95;72.86;102685.00;5069072;28;10802;-70
2022/03/15 01:00:18;;;;;;;;;4.00;4.00;;;;;8.95;72.83;102687.69;5069616;28;10783;-69
2022/03/15 01:02:45;;;;;;;;;4.00;2.75;;;;;8.94;73.04;102684.16;5069315;28;10579;-69
2022/03/15 01:05:12;;;;;;;;;4.75;4.75;;;;;8.91;73.08;102683.53;5046842;28;10683;-69
2022/03/15 01:07:38;;;;;;;;;5.25;4.50;;;;;8.96;73.10;102681.31;5065624;28;10747;-68
2022/03/15 01:10:07;;;;;;;;;4.00;2.00;;;;;8.94;72.90;102681.44;5051610;28;10728;-69
2022/03/15 01:12:33;;;;;;;;;5.00;3.50;;;;;8.94;72.95;102680.59;5037650;28;10484;-68
2022/03/15 01:15:03;;;;;;;;;4.00;4.00;;;;;8.88;72.96;102673.84;5059028;28;10582;-70
2022/03/15 01:17:30;;;;;;;;;4.00;4.00;;;;;8.85;73.04;102676.81;5072898;28;10515;-70
2022/03/15 01:19:56;;;;;;;;;6.75;5.50;;;;;8.82;73.01;102674.38;5070449;28;10809;-70
2022/03/15 01:22:23;;;;;;;;;2.00;2.00;;;;;8.78;73.34;102672.94;5072662;28;11295;-70
2022/03/15 01:24:49;;;;;;;;;4.00;4.00;;;;;8.75;73.41;102675.06;5071301;28;11187;-69
2022/03/15 01:27:16;;;;;;;;;8.00;6.50;;;;;8.72;73.53;102672.63;5072934;28;10605;-71
2022/03/15 01:29:44;;;;;;;;;5.50;5.50;;;;;8.70;73.97;102672.75;5072659;28;10832;-71
2022/03/15 01:32:10;;;;;;;;;6.00;5.25;;;;;8.64;73.99;102665.16;5054361;28;10678;-70
2022/03/15 01:34:37;;;;;;;;;7.00;7.00;;;;;8.68;74.27;102668.47;5072655;28;10759;-68
2022/03/15 01:37:03;;;;;;;;;4.75;4.25;;;;;8.67;74.45;102666.72;5072618;28;10865;-69
2022/03/15 01:39:30;;;;;;;;;6.00;4.00;;;;;8.66;74.25;102663.19;5068988;28;10732;-68
2022/03/15 01:41:57;;;;;;;;;5.00;5.00;;;;;8.65;74.45;102664.16;5054328;28;10722;-68
2022/03/15 01:44:26;;;;;;;;;7.75;7.75;;;;;8.62;74.37;102659.91;5072481;28;10763;-68
2022/03/15 01:46:53;;;;;;;;;5.25;4.50;;;;;8.61;74.24;102657.31;5072778;28;10804;-69
2022/03/15 01:49:21;;;;;;;;;6.50;4.50;;;;;8.58;74.58;102647.66;5054693;28;10878;-68
2022/03/15 01:51:50;;;;;;;;;5.50;5.50;;;;;8.58;74.60;102644.94;5071456;28;10825;-68
2022/03/15 01:54:17;;;;;;;;;7.50;5.00;;;;;8.56;74.33;102638.81;5078192;28;10903;-69
2022/03/15 01:56:43;;;;;;;;;6.50;4.00;;;;;8.57;74.50;102635.13;5051050;28;10939;-69
2022/03/15 01:59:14;;;;;;;;;6.75;6.00;;;;;8.55;74.50;102639.81;5034333;28;10889;-69
2022/03/15 02:01:41;;;;;;;;;11.00;7.00;;;;;8.52;74.40;102641.94;5034257;28;10809;-68
2022/03/15 02:04:09;;;;;;;;;7.00;6.00;;;;;8.49;74.69;102640.34;5067425;28;11118;-69
2022/03/15 02:06:38;;;;;;;;;8.50;5.00;;;;;8.47;74.73;102642.31;5050228;28;11060;-69
2022/03/15 02:09:12;;;;;;;;;8.50;8.00;;;;;8.49;74.40;102644.91;5061366;28;10937;-69
2022/03/15 02:11:40;;;;;;;;;7.75;3.50;;;;;8.45;74.63;102638.91;5049695;28;10799;-69
2022/03/15 02:14:07;;;;;;;;;5.50;4.00;;;;;8.47;74.47;102634.22;5050372;28;10897;-68
2022/03/15 02:16:33;;;;;;;;;8.75;7.25;;;;;8.45;74.71;102628.09;5052182;28;10846;-68
2022/03/15 02:19:01;;;;;;;;;5.00;5.00;;;;;8.42;74.45;102630.19;5057979;28;11643;-70
2022/03/15 02:21:29;;;;;;;;;8.50;5.25;;;;;8.34;75.07;102620.06;5053626;28;10914;-69
2022/03/15 02:23:56;;;;;;;;;8.25;8.25;;;;;8.28;75.08;102616.00;5071552;28;11107;-69
2022/03/15 02:26:22;;;;;;;;;7.75;6.00;;;;;8.24;75.48;102619.97;5071537;28;10856;-69
2022/03/15 02:28:49;;;;;;;;;6.75;6.75;;;;;8.23;75.27;102620.09;5071756;28;10937;-69
2022/03/15 02:31:16;;;;;;;;;5.00;3.50;;;;;8.15;75.92;102617.16;5071410;28;11165;-68
2022/03/15 02:33:42;;;;;;;;;6.25;6.25;;;;;8.11;76.22;102610.31;5064076;28;10906;-69
2022/03/15 02:36:10;;;;;;;;;7.75;6.50;;;;;8.13;76.28;102616.44;5065551;28;11109;-69
2022/03/15 02:38:37;;;;;;;;;8.50;7.75;;;;;8.04;76.13;102615.38;5071348;28;11003;-68
2022/03/15 02:41:03;;;;;;;;;7.00;7.00;;;;;8.02;76.02;102615.53;5071310;28;11200;-68
2022/03/15 02:43:30;;;;;;;;;4.00;4.00;;;;;7.99;76.27;102607.69;5051363;28;11185;-68
2022/03/15 02:45:57;;;;;;;;;10.25;7.75;;;;;7.98;76.70;102605.97;5052580;28;11094;-69
2022/03/15 02:48:24;;;;;;;;;10.50;9.75;;;;;7.96;76.74;102602.56;5071035;28;11222;-68
2022/03/15 02:50:50;;;;;;;;;14.50;11.25;;;;;7.97;76.90;102598.88;5069728;28;11283;-71
2022/03/15 02:53:17;;;;;;;;;16.50;11.00;;;;;7.93;77.09;102600.13;5070987;28;11406;-69
2022/03/15 02:55:46;;;;;;;;;14.00;10.00;;;;;7.90;77.26;102594.94;5070870;28;11264;-68
2022/03/15 02:58:13;;;;;;;;;7.00;7.00;;;;;7.89;77.16;102595.09;5052434;28;11346;-70
2022/03/15 03:00:39;;;;;;;;;15.50;12.25;;;;;7.87;77.23;102584.44;5070962;28;11761;-68
2022/03/15 03:03:06;;;;;;;;;6.75;5.50;;;;;7.91;77.68;102585.88;5070573;28;12013;-69
2022/03/15 03:05:34;;;;;;;;;8.00;8.00;;;;;7.86;76.87;102581.88;5070742;28;10959;-68
2022/03/15 03:08:04;;;;;;;;;11.50;11.00;;;;;7.81;77.01;102574.16;5070871;28;11106;-69
2022/03/15 03:10:31;;;;;;;;;12.50;9.50;;;;;7.82;77.32;102581.28;5070832;28;11262;-69
2022/03/15 03:12:58;;;;;;;;;9.75;8.00;;;;;7.80;77.54;102582.38;5050932;28;11068;-68
2022/03/15 03:15:26;;;;;;;;;10.75;8.50;;;;;7.75;77.82;102581.91;5070555;28;11175;-68
2022/03/15 03:17:53;;;;;;;;;13.25;11.50;;;;;7.78;77.92;102577.13;5070441;28;11528;-68
2022/03/15 03:20:21;;;;;;;;;12.25;11.25;;;;;7.83;77.78;102572.19;5070677;28;11296;-68
2022/03/15 03:22:54;;;;;;;;;10.25;9.25;;;;;7.79;77.71;102569.88;5070498;28;11553;-67
2022/03/15 03:25:20;;;;;;;;;5.00;5.00;;;;;7.79;77.95;102575.28;5069928;28;11632;-70
2022/03/15 03:27:47;;;;;;;;;11.50;10.50;;;;;7.76;77.73;102581.78;5062215;28;11125;-68
2022/03/15 03:30:14;;;;;;;;;7.25;7.25;;;;;7.70;77.76;102575.06;5070331;28;12189;-70
2022/03/15 03:32:41;;;;;;;;;16.25;11.50;;;;;7.70;77.96;102572.38;5052569;28;11170;-70
2022/03/15 03:35:08;;;;;;;;;10.00;10.00;;;;;7.72;77.85;102583.88;5069720;28;11531;-69
2022/03/15 03:37:35;;;;;;;;;14.50;11.75;;;;;7.70;77.97;102574.22;5070368;28;11556;-68
2022/03/15 03:40:07;;;;;;;;;13.25;12.75;;;;;7.70;77.83;102572.38;5070559;28;11474;-69
2022/03/15 03:42:36;;;;;;;;;13.50;13.00;;;;;7.69;77.97;102565.28;5075042;28;12148;-68
2022/03/15 03:45:05;;;;;;;;;18.75;8.50;;;;;7.71;78.28;102570.53;5069959;28;11484;-67
2022/03/15 03:47:31;;;;;;;;;13.50;11.00;;;;;7.70;78.01;102575.06;5070246;28;11404;-68
2022/03/15 03:49:58;;;;;;;;;14.50;13.50;;;;;7.71;78.39;102576.78;5070739;28;11491;-68
2022/03/15 03:52:25;;;;;;;;;11.00;11.00;;;;;7.72;78.52;102569.56;5069873;28;11435;-69
2022/03/15 03:54:51;;;;;;;;;10.00;9.25;;;;;7.73;78.56;102571.25;5063479;28;11120;-69
2022/03/15 03:57:18;;;;;;;;;12.25;11.75;;;;;7.70;78.68;102567.00;5070068;28;12279;-67
2022/03/15 03:59:45;;;;;;;;;12.50;11.75;;;;;7.72;78.69;102564.16;5063485;28;11459;-69
2022/03/15 04:02:12;;;;;;;;;15.00;14.00;;;;;7.74;78.80;102577.50;5069702;28;11437;-70
2022/03/15 04:04:39;;;;;;;;;16.75;16.25;;;;;7.69;78.91;102570.66;5062124;28;11429;-69
2022/03/15 04:07:07;;;;;;;;;14.25;13.00;;;;;7.69;79.33;102572.50;5069842;28;11494;-68
2022/03/15 04:09:34;;;;;;;;;12.25;11.50;;;;;7.70;78.84;102575.06;5070093;28;11435;-68
2022/03/15 04:12:00;;;;;;;;;14.75;12.75;;;;;7.70;79.48;102568.81;5069613;28;11460;-67
2022/03/15 04:14:28;;;;;;;;;17.25;13.25;;;;;7.70;79.75;102575.06;5070262;28;11453;-69
2022/03/15 04:16:55;;;;;;;;;12.25;11.25;;;;;7.69;79.66;102572.50;5068466;28;11438;-70
2022/03/15 04:19:21;;;;;;;;;19.75;15.50;;;;;7.72;79.80;102574.94;5052356;28;11443;-69
2022/03/15 04:21:49;;;;;;;;;19.50;18.25;;;;;7.77;79.63;102575.41;5069432;28;11467;-69
2022/03/15 04:24:16;;;;;;;;;15.75;15.00;;;;;7.75;80.07;102580.06;5070492;28;11537;-69
2022/03/15 04:26:42;;;;;;;;;17.00;14.25;;;;;7.68;80.11;102570.75;5070123;28;11442;-71
2022/03/15 04:29:10;;;;;;;;;14.50;14.00;;;;;7.72;79.88;102573.09;5050078;28;11451;-70
2022/03/15 04:31:37;;;;;;;;;13.00;13.00;;;;;7.75;80.09;102577.38;5051026;28;11560;-71
2022/03/15 04:34:03;;;;;;;;;17.00;15.00;;;;;7.70;80.38;102576.91;5069377;28;11209;-70
2022/03/15 04:36:30;;;;;;;;;13.50;12.50;;;;;7.66;80.67;102578.97;5052226;28;11392;-69
2022/03/15 04:38:57;;;;;;;;;18.25;16.25;;;;;7.68;80.77;102570.75;5069601;28;11438;-69
2022/03/15 04:41:23;;;;;;;;;15.00;15.00;;;;;7.67;81.03;102564.50;5069826;28;11359;-70
2022/03/15 04:43:50;;;;;;;;;18.75;18.25;;;;;7.70;81.16;102564.28;5069732;28;11579;-70
2022/03/15 04:46:17;;;;;;;;;16.25;15.00;;;;;7.75;81.21;102566.59;5070224;28;11455;-70
2022/03/15 04:48:43;;;;;;;;;15.00;13.00;;;;;7.76;81.49;102567.44;5073423;28;11425;-71
2022/03/15 04:51:10;;;;;;;;;15.00;14.25;;;;;7.83;81.27;102565.94;5073608;28;11432;-70
2022/03/15 04:53:36;;;;;;;;;18.25;15.50;;;;;7.82;81.89;102562.41;5073237;28;11566;-71
2022/03/15 04:56:03;;;;;;;;;16.50;15.00;;;;;7.83;81.62;102561.41;5073446;28;11459;-70
2022/03/15 04:58:30;;;;;;;;;19.25;17.75;;;;;7.80;81.81;102556.28;5073276;28;11571;-70
2022/03/15 05:00:58;;;;;;;;;22.00;22.00;;;;;7.86;82.09;102549.50;5064187;28;11450;-71
2022/03/15 05:03:24;;;;;;;;;18.00;15.25;;;;;7.86;82.23;102546.81;5069211;28;11486;-71
2022/03/15 05:05:52;;;;;;;;;22.50;19.50;;;;;7.87;82.13;102546.69;5073263;28;11444;-71
2022/03/15 05:08:18;;;;;;;;;22.00;17.00;;;;;7.88;82.15;102539.44;5073128;28;11603;-70
2022/03/15 05:13:29;;;;;;;;;13.50;13.50;;;;;7.95;81.87;102543.34;5072903;28;11481;-70
2022/03/15 05:15:56;;;;;;;;;21.50;18.50;;;;;7.95;81.96;102537.97;5065051;28;11480;-72
2022/03/15 05:18:23;;;;;;;;;21.50;21.00;;;;;7.93;81.51;102531.81;5054415;28;12336;-70
2022/03/15 05:20:50;;;;;;;;;22.50;18.25;;;;;7.92;81.57;102533.66;5071260;28;11557;-71
2022/03/15 05:23:16;;;;;;;;;20.25;20.25;;;;;7.90;81.85;102534.78;5072641;28;12120;-71
2022/03/15 05:25:43;;;;;;;;;16.75;13.25;;;;;7.93;82.17;102535.41;5072864;28;12185;-70
2022/03/15 05:28:09;;;;;;;;;21.75;18.00;;;;;7.93;82.06;102535.41;5054696;28;11516;-70
2022/03/15 05:30:37;;;;;;;;;21.00;21.00;;;;;7.93;81.95;102530.00;5071483;28;11449;-71
2022/03/15 05:33:04;;;;;;;;;17.25;16.00;;;;;7.93;82.29;102531.81;5072279;28;11464;-71
2022/03/15 05:35:33;;;;;;;;;23.75;22.00;;;;;7.93;82.22;102535.41;5072366;28;11237;-72
2022/03/15 05:38:02;;;;;;;;;23.75;21.50;;;;;7.94;82.07;102536.25;5070919;28;11609;-71
2022/03/15 05:40:29;;;;;;;;;22.00;18.25;;;;;7.92;82.15;102528.25;5072517;28;12158;-71
2022/03/15 05:42:55;;;;;;;;;21.75;18.25;;;;;7.89;82.31;102528.53;5072149;28;12135;-70
2022/03/15 05:45:25;;;;;;;;;20.25;19.75;;;;;7.86;82.64;102522.53;5072408;28;11566;-71
2022/03/15 05:47:52;;;;;;;;;25.25;18.75;;;;;7.91;82.52;102526.56;5071955;28;11442;-71
2022/03/15 05:50:19;;;;;;;;;19.00;18.50;;;;;7.88;82.73;102515.19;5054369;28;11572;-72
2022/03/15 05:52:45;;;;;;;;;20.00;17.00;;;;;7.84;82.53;102511.03;5052529;28;11467;-72
2022/03/15 05:55:12;;;;;;;;;26.25;22.50;;;;;7.88;83.12;102515.19;5072043;28;11574;-70
2022/03/15 05:57:39;;;;;;;;;16.25;14.00;;;;;7.92;82.88;102511.22;5071749;28;11497;-70
2022/03/15 06:00:07;;;;;;;;;17.25;17.25;;;;;7.93;82.76;102507.53;5070716;28;11569;-70
2022/03/15 06:02:40;;;;;;;;;20.25;19.25;;;;;7.89;82.36;102500.69;5072209;28;11086;-70
2022/03/15 06:05:10;;;;;;;;;27.00;24.25;;;;;7.84;82.89;102502.94;5071699;28;11454;-70
2022/03/15 06:07:43;;;;;;;;;29.00;24.00;;;;;7.82;83.07;102510.31;5069951;28;12154;-70
2022/03/15 06:10:10;;;;;;;;;25.25;23.00;;;;;7.81;83.45;102509.47;5070743;28;11461;-71
2022/03/15 06:12:36;;;;;;;;;20.50;16.50;;;;;7.81;83.17;102509.47;5071129;28;11470;-69
2022/03/15 06:15:04;;;;;;;;;29.00;25.00;;;;;7.80;83.82;102507.75;5068265;28;11705;-71
2022/03/15 06:17:34;;;;;;;;;26.25;25.00;;;;;7.83;83.67;102502.09;5070579;28;11601;-69
2022/03/15 06:20:00;;;;;;;;;25.00;22.25;;;;;7.88;83.04;102502.53;5071014;28;11471;-72
2022/03/15 06:22:28;;;;;;;;;20.25;20.00;;;;;7.92;82.76;102497.75;5068057;28;11475;-68
2022/03/15 06:24:55;;;;;;;;;23.00;22.75;;;;;7.91;82.66;102496.88;5071082;28;11487;-70
2022/03/15 06:27:21;;;;;;;;;23.50;19.50;;;;;7.92;82.88;102504.00;5071451;28;11465;-71
2022/03/15 06:29:48;;;;;;;;;24.25;22.75;;;;;7.88;83.07;102504.38;5071644;28;11578;-72
2022/03/15 06:32:15;;;;;;;;;21.25;20.75;;;;;7.91;83.65;102502.28;5071562;28;11568;-70
2022/03/15 06:34:49;;;;;;;;;28.25;23.75;;;;;7.91;83.18;102501.44;5068613;28;11501;-70
2022/03/15 06:37:17;;;;;;;;;20.75;20.75;;;;;7.90;83.16;102499.72;5070954;28;11484;-70
2022/03/15 06:39:44;;;;;;;;;27.50;22.50;;;;;7.92;83.08;102503.13;5071501;28;12203;-70
2022/03/15 06:42:11;;;;;;;;;27.25;23.75;;;;;7.94;82.89;102496.66;5070272;28;11593;-70
2022/03/15 06:44:41;;;;;;;;;20.25;16.00;;;;;7.94;83.05;102491.25;5063923;28;11437;-70
2022/03/15 06:47:08;;;;;;;;;32.00;25.00;;;;;7.92;83.42;102492.34;5070909;28;11478;-70
2022/03/15 06:49:35;;;;;;;;;35.75;30.00;;;;;7.85;83.64;102494.72;5069827;28;11562;-71
2022/03/15 06:52:02;;;;;;;;;32.75;26.50;;;;;7.80;83.86;102494.25;5074126;28;11630;-70
2022/03/15 06:54:28;;;;;;;;;26.00;23.00;;;;;7.85;83.93;102489.31;5057611;28;11542;-70
2022/03/15 06:56:56;;;;;;;;;38.00;31.25;;;;;7.85;83.84;102489.31;5058662;28;11463;-70
2022/03/15 06:59:22;;;;;;;;;37.25;35.50;;;;;7.81;84.65;102485.19;5068334;28;11458;-70
2022/03/15 07:01:50;;;;;;;;;29.00;27.00;;;;;7.86;83.94;102491.03;5069809;28;11517;-71
2022/03/15 07:04:19;;;;;;;;;31.25;30.00;;;;;7.90;83.80;102488.94;5069036;28;11462;-71
2022/03/15 07:06:46;;;;;;;;;28.50;24.25;;;;;7.92;83.34;102495.91;5051964;28;12182;-70
2022/03/15 07:09:12;;;;;;;;;34.25;30.75;;;;;7.95;83.18;102487.56;5049850;28;11567;-71
2022/03/15 07:11:38;;;;;;;;;28.25;21.00;;;;;8.03;83.07;102490.47;5066227;28;11606;-71
2022/03/15 07:14:06;;;;;;;;;29.75;25.75;;;;;8.08;83.04;102481.09;5065700;28;11552;-71
2022/03/15 07:16:32;;;;;;;;;25.00;23.75;;;;;8.13;82.78;102482.41;5070099;28;12291;-70
2022/03/15 07:18:59;;;;;;;;;27.00;25.25;;;;;8.63;82.38;102469.06;5068977;28;11466;-71
2022/03/15 07:21:26;;;;;;;;;29.75;25.50;;;;;8.40;81.03;102472.94;5070069;28;11425;-70
2022/03/15 07:23:53;;;;;;;;;24.75;24.00;;;;;8.32;81.22;102469.03;5068264;28;11470;-69
2022/03/15 07:26:19;;;;;;;;;20.25;19.00;;;;;8.33;81.04;102478.00;5070094;28;11389;-70
2022/03/15 07:28:45;;;;;;;;;24.25;19.50;;;;;8.32;81.45;102473.59;5069937;28;11411;-70
2022/03/15 07:31:12;;;;;;;;;30.25;25.75;;;;;8.34;81.31;102474.34;5069799;28;11462;-69
2022/03/15 07:33:39;;;;;;;;;22.25;16.50;;;;;8.32;81.04;102479.84;5067128;28;11533;-70
2022/03/15 07:36:05;;;;;;;;;21.00;17.50;;;;;8.33;80.84;102478.88;5063429;28;11554;-70
2022/03/15 07:38:32;;;;;;;;;27.50;24.00;;;;;8.38;81.17;102475.78;5070339;28;11487;-71
2022/03/15 07:41:01;;;;;;;;;27.25;25.50;;;;;8.41;80.62;102482.75;5069373;28;11953;-70
2022/03/15 07:43:28;;;;;;;;;26.50;25.50;;;;;8.41;81.27;102469.25;5069834;28;11488;-70
2022/03/15 07:45:56;;;;;;;;;27.75;23.00;;;;;8.40;80.78;102475.63;5067881;28;11451;-70
2022/03/15 07:48:22;;;;;;;;;28.75;25.25;;;;;8.41;81.10;102478.19;5064217;28;11491;-71
2022/03/15 07:50:52;;;;;;;;;20.00;18.00;;;;;8.42;80.64;102471.81;5069409;28;11601;-72
2022/03/15 07:53:19;;;;;;;;;24.50;24.50;;;;;8.52;80.28;102472.72;5068936;28;11485;-70
2022/03/15 07:55:46;;;;;;;;;24.75;24.25;;;;;8.65;80.52;102480.56;5069961;28;11453;-70
2022/03/15 07:58:12;;;;;;;;;26.75;25.00;;;;;8.66;79.93;102478.72;5058067;28;11425;-71
2022/03/15 08:00:39;;;;;;;;;24.50;19.25;;;;;8.63;79.78;102483.41;5067149;28;11620;-70
2022/03/15 08:03:05;;;;;;;;;29.25;25.50;;;;;8.67;79.53;102477.75;5065133;28;11443;-69
2022/03/15 08:05:32;;;;;;;;;24.00;22.50;;;;;8.66;79.26;102476.88;5066881;28;12250;-71
2022/03/15 08:07:58;;;;;;;;;29.00;24.25;;;;;8.65;79.45;102477.88;5052563;28;12305;-72
2022/03/15 08:10:25;;;;;;;;;28.75;27.00;;;;;8.71;79.08;102476.50;5061804;28;11453;-70
2022/03/15 08:12:51;;;;;;;;;29.75;25.75;;;;;8.72;78.94;102479.06;5054337;28;11516;-71
2022/03/15 08:15:18;;;;;;;;;29.00;29.00;;;;;8.78;78.59;102474.94;5055074;28;11481;-70
2022/03/15 08:17:45;;;;;;;;;33.50;30.75;;;;;8.79;78.55;102469.41;5055085;28;11547;-72
2022/03/15 08:20:18;;;;;;;;;28.75;26.25;;;;;8.74;78.07;102458.19;5054692;28;11469;-71
2022/03/15 08:22:46;;;;;;;;;30.00;25.50;;;;;8.85;78.40;102468.84;5058602;28;11762;-71
2022/03/15 08:25:13;;;;;;;;;33.25;30.75;;;;;8.91;78.67;102467.44;5058092;28;12213;-71
2022/03/15 08:27:39;;;;;;;;;22.75;21.50;;;;;8.98;78.13;102459.66;5062408;28;12162;-71
2022/03/15 08:30:06;;;;;;;;;25.00;23.00;;;;;9.03;77.94;102462.78;5061111;28;11468;-71
2022/03/15 08:32:34;;;;;;;;;18.75;15.00;;;;;9.07;77.19;102466.91;5070688;28;11558;-71
2022/03/15 08:35:00;;;;;;;;;17.50;16.00;;;;;9.06;77.31;102466.06;5071696;28;11886;-70
2022/03/15 08:37:27;;;;;;;;;19.25;16.00;;;;;9.11;77.01;102460.25;5066746;28;11300;-71
2022/03/15 08:39:53;;;;;;;;;31.00;26.75;;;;;9.09;76.89;102457.69;5075204;28;11104;-72
2022/03/15 08:42:22;;;;;;;;;32.00;28.25;;;;;9.18;76.87;102461.41;5068266;28;11492;-70
2022/03/15 08:44:49;;;;;;;;;26.50;23.50;;;;;9.26;76.33;102461.56;5071551;28;11487;-71
2022/03/15 08:47:15;;;;;;;;;28.75;25.00;;;;;9.35;76.08;102455.28;5071752;28;12271;-71
2022/03/15 08:49:43;;;;;;;;;27.00;21.25;;;;;9.35;76.00;102462.53;5071350;28;11562;-73
2022/03/15 08:52:10;;;;;;;;;24.25;21.25;;;;;9.31;75.58;102464.69;5072223;28;11586;-71
2022/03/15 08:54:37;;;;;;;;;21.25;18.25;;;;;9.43;74.94;102457.31;5070106;28;11417;-69
2022/03/15 08:57:04;;;;;;;;;25.25;24.00;;;;;9.56;74.95;102460.56;5068183;28;11192;-70
2022/03/15 08:59:31;;;;;;;;;28.75;26.50;;;;;9.49;74.84;102459.44;5071222;28;11265;-70
2022/03/15 09:01:59;;;;;;;;;27.75;23.75;;;;;9.57;74.30;102463.13;5071173;28;12334;-71
2022/03/15 09:04:26;;;;;;;;;24.25;21.25;;;;;9.71;74.47;102455.59;5070216;28;11610;-72
2022/03/15 09:06:52;;;;;;;;;24.00;21.75;;;;;9.71;73.37;102469.13;5067980;28;11449;-70
2022/03/15 09:09:21;;;;;;;;;22.25;21.00;;;;;9.74;73.47;102464.25;5062100;28;11285;-69
2022/03/15 09:11:49;;;;;;;;;25.75;20.25;;;;;9.81;73.53;102456.41;5064343;28;11503;-70
2022/03/15 09:14:16;;;;;;;;;27.75;26.25;;;;;9.87;72.03;102459.38;5069676;28;11037;-69
2022/03/15 09:16:43;;;;;;;;;30.75;29.00;;;;;9.94;72.13;102451.56;5067949;28;11302;-70
2022/03/15 09:19:11;;;;;;;;;34.00;25.25;;;;;10.08;71.82;102451.09;5036834;28;11588;-71
2022/03/15 09:21:37;;;;;;;;;23.00;20.75;;;;;10.16;70.73;102447.66;5074080;28;13141;-70
2022/03/15 09:24:05;;;;;;;;;20.25;18.25;;;;;10.19;69.64;102452.78;5069600;28;11127;-71
2022/03/15 09:26:32;;;;;;;;;25.75;22.00;;;;;10.38;69.76;102446.47;5067932;28;11114;-71
2022/03/15 09:28:58;;;;;;;;;23.25;17.25;;;;;10.55;69.22;102447.56;5065898;28;11249;-71
2022/03/15 09:31:25;;;;;;;;;25.25;20.75;;;;;10.85;68.02;102449.09;5069919;28;11095;-70
2022/03/15 09:33:51;;;;;;;;;20.50;20.00;;;;;11.09;67.18;102443.97;5067568;28;11054;-71
2022/03/15 09:36:18;;;;;;;;;26.75;25.00;;;;;11.87;64.13;102438.75;5068796;28;11571;-70
2022/03/15 09:38:45;;;;;;;;;25.75;25.75;;;;;12.38;61.95;102437.06;5068633;28;11263;-71
2022/03/15 09:41:15;;;;;;;;;21.00;21.00;;;;;13.01;61.03;102431.22;5070482;28;11579;-71
2022/03/15 09:43:45;;;;;;;;;25.00;23.00;;;;;13.20;59.83;102433.66;5066835;28;10949;-71
2022/03/15 09:46:13;;;;;;;;;22.25;17.50;;;;;13.51;58.84;102434.72;5052191;28;10872;-71
2022/03/15 09:49:01;;;;;;;;;25.50;21.00;;;;;13.32;57.78;102431.47;5066858;28;10575;-71
2022/03/15 09:51:32;;;;;;;;;21.50;20.75;;;;;12.76;57.95;102433.84;5070830;28;10642;-71
2022/03/15 09:54:00;;;;;;;;;24.75;20.75;;;;;12.50;59.42;102433.91;5068414;28;10597;-71
2022/03/15 09:56:28;;;;;;;;;16.50;16.00;;;;;12.73;61.42;102433.31;5070013;28;10545;-68
2022/03/15 09:58:56;;;;;;;;;25.25;23.50;;;;;12.78;58.57;102429.09;5066416;28;10477;-71
2022/03/15 10:01:22;;;;;;;;;21.00;21.00;;;;;12.73;58.24;102422.47;5053902;28;10803;-70
2022/03/15 10:03:49;;;;;;;;;22.00;19.25;;;;;12.77;57.56;102411.09;5064622;28;10590;-71
2022/03/15 10:06:15;;;;;;;;;18.00;16.00;;;;;12.55;57.36;102422.53;5069805;28;10527;-67
2022/03/15 10:08:42;;;;;;;;;17.50;16.75;;;;;12.49;56.89;102412.34;5067655;28;10328;-70
2022/03/15 10:11:09;;;;;;;;;13.50;13.50;;;;;12.42;57.16;102406.72;5070049;28;11944;-71
2022/03/15 10:13:36;;;;;;;;;18.00;16.25;;;;;12.43;57.43;102396.69;5066489;28;10498;-71
2022/03/15 10:16:03;;;;;;;;;13.75;12.00;;;;;12.48;57.31;102402.50;5067516;28;10459;-68
2022/03/15 10:18:31;;;;;;;;;17.25;17.25;;;;;12.79;57.35;102390.03;5063812;28;10485;-71
2022/03/15 10:20:57;;;;;;;;;17.25;17.25;;;;;13.21;56.31;102389.97;5069638;28;10633;-70
2022/03/15 10:23:30;;;;;;;;;19.50;18.75;;;;;13.13;56.39;102391.78;5069512;28;10433;-71
2022/03/15 10:25:59;;;;;;;;;16.00;14.75;;;;;13.26;54.77;102386.75;5083501;22;10712;-69
2022/03/15 10:28:26;;;;;;;;;23.00;23.00;;;;;13.14;55.25;102377.22;5084949;28;10466;-68
2022/03/15 10:30:52;;;;;;;;;18.75;15.50;;;;;13.38;54.30;102376.38;5107320;28;10595;-69
2022/03/15 10:33:19;;;;;;;;;17.50;15.25;;;;;13.45;53.50;102380.13;5097023;28;10567;-69
2022/03/15 10:35:49;;;;;;;;;17.50;15.00;;;;;13.45;52.95;102364.66;5096955;28;10215;-68
2022/03/15 10:38:17;;;;;;;;;16.25;14.25;;;;;13.57;52.84;102372.47;5094871;28;11293;-69
2022/03/15 10:40:49;;;;;;;;;20.50;19.50;;;;;13.79;52.06;102369.03;5094029;28;10145;-69
2022/03/15 10:43:19;;;;;;;;;16.50;14.75;;;;;13.77;51.47;102365.66;5084494;28;10498;-68
2022/03/15 10:45:57;;;;;;;;;15.25;13.25;;;;;14.14;50.70;102357.75;5090646;28;10089;-69
2022/03/15 10:48:29;;;;;;;;;20.00;15.50;;;;;14.33;50.41;102363.78;5091106;28;10939;-69
2022/03/15 10:50:59;;;;;;;;;15.00;11.50;;;;;14.27;49.59;102356.31;5101089;28;10121;-69
2022/03/15 10:53:35;;;;;;;;;11.75;11.25;;;;;14.39;49.59;102357.66;5090175;28;9989;-68
2022/03/15 10:56:11;;;;;;;;;15.00;12.50;;;;;14.31;49.40;102354.94;5089702;28;9838;-68
2022/03/15 10:59:00;;;;;;;;;10.00;9.50;;;;;14.33;49.45;102344.72;5091382;28;9948;-69
2022/03/15 11:01:29;;;;;;;;;9.75;9.75;;;;;14.52;49.31;102355.22;5093846;28;9749;-69
2022/03/15 11:04:04;;;;;;;;;14.75;13.50;;;;;14.45;49.65;102346.91;5089369;28;9829;-69
2022/03/15 11:06:38;;;;;;;;;15.25;14.00;;;;;14.48;49.10;102342.13;5097517;28;9874;-68
2022/03/15 11:09:24;;;;;;;;;11.00;11.00;;;;;14.16;50.20;102333.06;5095250;28;10133;-69
2022/03/15 11:12:01;;;;;;;;;14.00;9.75;;;;;14.35;49.84;102334.47;5105266;28;9914;-69
2022/03/15 11:14:41;;;;;;;;;12.50;11.25;;;;;14.24;50.53;102327.56;5093553;28;10068;-69
2022/03/15 11:17:22;;;;;;;;;14.00;12.50;;;;;14.54;49.14;102331.34;5098305;28;9943;-70
2022/03/15 11:19:53;;;;;;;;;5.50;5.50;;;;;14.58;48.89;102332.69;5088276;28;10478;-69
2022/03/15 11:22:23;;;;;;;;;12.25;11.75;;;;;14.44;49.24;102328.88;5103017;28;9909;-69
2022/03/15 11:25:05;;;;;;;;;7.00;7.00;;;;;14.57;48.45;102327.41;5096792;28;9820;-69
2022/03/15 11:27:35;;;;;;;;;9.50;7.50;;;;;14.84;48.62;102318.72;5080710;28;9583;-70